To NAV CANADA Home Page Login to a new session Search on AWWS site Feedback and Comments Disclaimer Vers la page française équivalente Tips FAQ What's new on the site To the Forecasts and Observations / NOTAM section To "File a Flight Plan" website Publications and other links Update of the User's profile FIC Telephone Numbers My Weather Data Folder Route Weather Data Regional Weather Data Local Weather Data To the Forecasts and Observations / NOTAM section
Request Generated 03/03/2015 at 00:32:44 UTC . Weather information available at that time is displayed.

METAR/TAF

KINGSTON/ON    

METAR CYGK 030000Z 26010G16KT 15SM FEW047 M06/M14 A3032 RMK CU1
SLP274=
METAR CYGK 022300Z 26011G19KT 15SM FEW046 M05/M13 A3029 RMK CU2
SLP264=
SPECI CYGK 022249Z 26011KT 15SM SCT046 M04/M13 A3029 RMK CU3 SLP262=
METAR CYGK 022200Z 25014G20KT 15SM DRSN BKN047 BKN070 M04/M12 A3025
RMK CU5AC1 OCNL -SHSN SLP250=

TAF CYGK 021938Z 0220/0304 27015G25KT P6SM BKN030 TEMPO 0220/0224 5SM
-SHSN BKN020
BECMG 0222/0224 28012KT
FM030000 28012KT P6SM SCT030
RMK NXT FCST BY 030200Z=
Your time UTC time
Weather data provided by Environment Canada and NAV CANADA